sensor_id;sensor_type;location;lat;lon;timestamp;pressure;altitude;pressure_sealevel;temperature;humidity
4981;BME280;2507;50.392;7.482;2023-02-13T00:00:52;102942.44;;;11.14;68.37
4981;BME280;2507;50.392;7.482;2023-02-13T00:03:17;102940.72;;;11.13;68.16
4981;BME280;2507;50.392;7.482;2023-02-13T00:05:43;102938.25;;;11.09;68.69
4981;BME280;2507;50.392;7.482;2023-02-13T00:08:08;102938.03;;;11.15;68.70
4981;BME280;2507;50.392;7.482;2023-02-13T00:10:34;102933.25;;;11.26;68.03
4981;BME280;2507;50.392;7.482;2023-02-13T00:12:59;102932.63;;;11.43;67.69
4981;BME280;2507;50.392;7.482;2023-02-13T00:15:24;102928.44;;;11.37;67.98
4981;BME280;2507;50.392;7.482;2023-02-13T00:17:49;102936.28;;;11.39;68.55
4981;BME280;2507;50.392;7.482;2023-02-13T00:20:15;102937.66;;;11.49;67.43
4981;BME280;2507;50.392;7.482;2023-02-13T00:22:40;102932.28;;;11.52;67.81
4981;BME280;2507;50.392;7.482;2023-02-13T00:25:06;102929.25;;;11.39;67.74
4981;BME280;2507;50.392;7.482;2023-02-13T00:27:32;102932.69;;;11.41;67.79
4981;BME280;2507;50.392;7.482;2023-02-13T00:29:58;102926.75;;;11.36;68.05
4981;BME280;2507;50.392;7.482;2023-02-13T00:32:23;102943.81;;;11.48;67.70
4981;BME280;2507;50.392;7.482;2023-02-13T00:34:48;102940.97;;;11.54;67.61
4981;BME280;2507;50.392;7.482;2023-02-13T00:37:14;102941.72;;;11.57;67.44
4981;BME280;2507;50.392;7.482;2023-02-13T00:39:40;102923.81;;;11.44;67.56
4981;BME280;2507;50.392;7.482;2023-02-13T00:42:06;102937.41;;;11.55;67.24
4981;BME280;2507;50.392;7.482;2023-02-13T00:44:31;102933.66;;;11.39;67.56
4981;BME280;2507;50.392;7.482;2023-02-13T00:46:56;102931.81;;;11.41;68.18
4981;BME280;2507;50.392;7.482;2023-02-13T00:49:22;102941.72;;;11.57;67.49
4981;BME280;2507;50.392;7.482;2023-02-13T00:51:47;102921.78;;;11.75;67.07
4981;BME280;2507;50.392;7.482;2023-02-13T00:54:12;102929.22;;;11.87;66.74
4981;BME280;2507;50.392;7.482;2023-02-13T00:56:38;102927.22;;;11.70;66.59
4981;BME280;2507;50.392;7.482;2023-02-13T00:59:03;102930.66;;;11.72;66.56
4981;BME280;2507;50.392;7.482;2023-02-13T01:01:28;102925.78;;;11.85;66.12
4981;BME280;2507;50.392;7.482;2023-02-13T01:03:54;102925.44;;;11.94;65.59
4981;BME280;2507;50.392;7.482;2023-02-13T01:06:19;102928.34;;;11.86;65.91
4981;BME280;2507;50.392;7.482;2023-02-13T01:08:44;102931.50;;;11.73;65.74
4981;BME280;2507;50.392;7.482;2023-02-13T01:11:09;102928.19;;;11.68;66.00
4981;BME280;2507;50.392;7.482;2023-02-13T01:13:35;102925.59;;;11.43;66.88
4981;BME280;2507;50.392;7.482;2023-02-13T01:16:00;102931.19;;;11.57;66.56
4981;BME280;2507;50.392;7.482;2023-02-13T01:18:25;102927.09;;;11.50;66.60
4981;BME280;2507;50.392;7.482;2023-02-13T01:20:56;102923.50;;;11.53;66.21
4981;BME280;2507;50.392;7.482;2023-02-13T01:23:22;102926.13;;;11.53;66.88
4981;BME280;2507;50.392;7.482;2023-02-13T01:25:47;102923.50;;;11.53;66.34
4981;BME280;2507;50.392;7.482;2023-02-13T01:28:15;102923.16;;;11.62;66.18
4981;BME280;2507;50.392;7.482;2023-02-13T01:30:41;102910.38;;;11.51;66.24
4981;BME280;2507;50.392;7.482;2023-02-13T01:33:10;102925.06;;;11.57;66.52
4981;BME280;2507;50.392;7.482;2023-02-13T01:35:38;102921.66;;;11.55;66.33
4981;BME280;2507;50.392;7.482;2023-02-13T01:38:03;102915.78;;;11.48;66.64
4981;BME280;2507;50.392;7.482;2023-02-13T01:40:29;102915.09;;;11.43;66.92
4981;BME280;2507;50.392;7.482;2023-02-13T01:42:54;102909.50;;;11.29;67.67
4981;BME280;2507;50.392;7.482;2023-02-13T01:45:27;102905.31;;;11.23;68.18
4981;BME280;2507;50.392;7.482;2023-02-13T01:48:02;102901.53;;;11.30;67.69
4981;BME280;2507;50.392;7.482;2023-02-13T01:53:10;102896.56;;;11.23;67.56
4981;BME280;2507;50.392;7.482;2023-02-13T01:55:45;102895.81;;;11.19;67.29
4981;BME280;2507;50.392;7.482;2023-02-13T01:58:16;102885.53;;;11.13;67.78
4981;BME280;2507;50.392;7.482;2023-02-13T02:00:43;102883.97;;;11.08;67.97
4981;BME280;2507;50.392;7.482;2023-02-13T02:03:18;102885.59;;;11.12;68.17
4981;BME280;2507;50.392;7.482;2023-02-13T02:05:45;102888.09;;;11.15;67.85
4981;BME280;2507;50.392;7.482;2023-02-13T02:08:12;102888.75;;;11.21;67.32
4981;BME280;2507;50.392;7.482;2023-02-13T02:10:38;102910.69;;;10.96;67.79
4981;BME280;2507;50.392;7.482;2023-02-13T02:13:08;102884.50;;;10.93;67.14
4981;BME280;2507;50.392;7.482;2023-02-13T02:15:35;102888.53;;;10.78;67.51
4981;BME280;2507;50.392;7.482;2023-02-13T02:18:00;102892.03;;;10.79;67.54
4981;BME280;2507;50.392;7.482;2023-02-13T02:20:48;102888.44;;;10.81;67.70
4981;BME280;2507;50.392;7.482;2023-02-13T02:23:33;102885.91;;;10.78;67.91
4981;BME280;2507;50.392;7.482;2023-02-13T02:46:20;102890.97;;;10.84;66.82
4981;BME280;2507;50.392;7.482;2023-02-13T02:48:32;102885.38;;;10.93;66.28
4981;BME280;2507;50.392;7.482;2023-02-13T02:51:31;102892.78;;;10.82;66.18
4981;BME280;2507;50.392;7.482;2023-02-13T02:57:16;102900.91;;;10.50;67.20
4981;BME280;2507;50.392;7.482;2023-02-13T02:59:45;102904.09;;;10.34;67.25
4981;BME280;2507;50.392;7.482;2023-02-13T03:02:29;102903.34;;;10.30;67.33
4981;BME280;2507;50.392;7.482;2023-02-13T03:05:21;102905.91;;;10.32;67.45
4981;BME280;2507;50.392;7.482;2023-02-13T03:08:08;102909.81;;;10.18;67.64
4981;BME280;2507;50.392;7.482;2023-02-13T03:10:35;102909.59;;;10.26;67.28
4981;BME280;2507;50.392;7.482;2023-02-13T03:13:43;102913.97;;;10.25;67.24
4981;BME280;2507;50.392;7.482;2023-02-13T03:16:18;102924.81;;;10.15;67.80
4981;BME280;2507;50.392;7.482;2023-02-13T03:19:03;102914.03;;;10.24;67.39
4981;BME280;2507;50.392;7.482;2023-02-13T03:33:55;102917.91;;;10.39;67.32
4981;BME280;2507;50.392;7.482;2023-02-13T03:36:34;102917.16;;;10.35;67.08
4981;BME280;2507;50.392;7.482;2023-02-13T03:44:54;102923.09;;;10.42;67.37
4981;BME280;2507;50.392;7.482;2023-02-13T03:47:41;102918.38;;;10.51;66.73
4981;BME280;2507;50.392;7.482;2023-02-13T03:50:09;102926.03;;;10.57;66.75
4981;BME280;2507;50.392;7.482;2023-02-13T03:55:15;102929.97;;;10.44;66.75
4981;BME280;2507;50.392;7.482;2023-02-13T03:58:04;102927.16;;;10.50;66.19
4981;BME280;2507;50.392;7.482;2023-02-13T04:00:53;102925.59;;;10.45;66.28
4981;BME280;2507;50.392;7.482;2023-02-13T04:06:31;102924.78;;;10.43;66.33
4981;BME280;2507;50.392;7.482;2023-02-13T04:08:58;102927.88;;;10.29;66.73
4981;BME280;2507;50.392;7.482;2023-02-13T04:11:29;102936.00;;;10.21;66.97
4981;BME280;2507;50.392;7.482;2023-02-13T04:14:03;102935.78;;;10.27;66.42
4981;BME280;2507;50.392;7.482;2023-02-13T04:16:37;102931.03;;;10.12;66.77
4981;BME280;2507;50.392;7.482;2023-02-13T04:19:05;102926.53;;;10.16;66.96
4981;BME280;2507;50.392;7.482;2023-02-13T04:21:37;102925.56;;;10.18;67.15
4981;BME280;2507;50.392;7.482;2023-02-13T04:24:04;102925.81;;;10.11;66.91
4981;BME280;2507;50.392;7.482;2023-02-13T04:26:40;102927.78;;;10.03;67.42
4981;BME280;2507;50.392;7.482;2023-02-13T04:29:07;102930.28;;;10.09;66.96
4981;BME280;2507;50.392;7.482;2023-02-13T04:31:32;102929.88;;;10.21;66.58
4981;BME280;2507;50.392;7.482;2023-02-13T04:33:58;102919.84;;;10.34;66.44
4981;BME280;2507;50.392;7.482;2023-02-13T04:36:23;102928.53;;;10.36;66.33
4981;BME280;2507;50.392;7.482;2023-02-13T04:38:49;102926.47;;;10.44;65.75
4981;BME280;2507;50.392;7.482;2023-02-13T04:41:14;102918.16;;;10.57;65.63
4981;BME280;2507;50.392;7.482;2023-02-13T04:43:40;102926.28;;;10.50;65.76
4981;BME280;2507;50.392;7.482;2023-02-13T04:46:05;102920.69;;;10.60;65.63
4981;BME280;2507;50.392;7.482;2023-02-13T04:48:30;102911.69;;;10.67;65.33
4981;BME280;2507;50.392;7.482;2023-02-13T04:50:56;102911.31;;;10.53;65.53
4981;BME280;2507;50.392;7.482;2023-02-13T04:53:21;102921.91;;;10.50;65.10
4981;BME280;2507;50.392;7.482;2023-02-13T04:55:46;102914.78;;;10.54;65.35
4981;BME280;2507;50.392;7.482;2023-02-13T04:58:12;102916.97;;;10.41;65.36
4981;BME280;2507;50.392;7.482;2023-02-13T05:00:37;102919.50;;;10.16;66.49
4981;BME280;2507;50.392;7.482;2023-02-13T05:03:07;102921.06;;;10.23;66.43
4981;BME280;2507;50.392;7.482;2023-02-13T05:05:33;102916.59;;;10.25;66.11
4981;BME280;2507;50.392;7.482;2023-02-13T05:07:58;102916.22;;;10.38;65.86
4981;BME280;2507;50.392;7.482;2023-02-13T05:10:24;102928.81;;;10.26;66.11
4981;BME280;2507;50.392;7.482;2023-02-13T05:12:49;102917.00;;;10.13;66.37
4981;BME280;2507;50.392;7.482;2023-02-13T05:15:14;102913.75;;;10.04;66.57
4981;BME280;2507;50.392;7.482;2023-02-13T05:17:42;102910.66;;;9.91;66.76
4981;BME280;2507;50.392;7.482;2023-02-13T05:20:08;102913.38;;;9.88;66.98
4981;BME280;2507;50.392;7.482;2023-02-13T05:22:33;102914.25;;;9.89;66.95
4981;BME280;2507;50.392;7.482;2023-02-13T05:25:17;102918.16;;;9.76;67.30
4981;BME280;2507;50.392;7.482;2023-02-13T05:27:42;102915.44;;;9.79;67.47
4981;BME280;2507;50.392;7.482;2023-02-13T05:30:08;102907.00;;;9.97;66.96
4981;BME280;2507;50.392;7.482;2023-02-13T05:32:33;102921.31;;;9.87;66.61
4981;BME280;2507;50.392;7.482;2023-02-13T05:34:59;102916.56;;;9.70;67.28
4981;BME280;2507;50.392;7.482;2023-02-13T05:37:24;102907.84;;;9.70;67.10
4981;BME280;2507;50.392;7.482;2023-02-13T05:39:49;102908.97;;;9.61;67.60
4981;BME280;2507;50.392;7.482;2023-02-13T05:42:14;102909.75;;;9.65;67.68
4981;BME280;2507;50.392;7.482;2023-02-13T05:44:40;102914.22;;;9.61;67.54
4981;BME280;2507;50.392;7.482;2023-02-13T05:47:05;102920.72;;;9.48;67.65
4981;BME280;2507;50.392;7.482;2023-02-13T05:49:30;102916.34;;;9.49;67.93
4981;BME280;2507;50.392;7.482;2023-02-13T05:51:55;102910.91;;;9.55;67.58
4981;BME280;2507;50.392;7.482;2023-02-13T05:54:21;102917.16;;;9.20;68.27
4981;BME280;2507;50.392;7.482;2023-02-13T05:56:46;102922.94;;;9.00;68.97
4981;BME280;2507;50.392;7.482;2023-02-13T05:59:12;102916.28;;;8.89;69.32
4981;BME280;2507;50.392;7.482;2023-02-13T06:01:37;102923.38;;;8.85;69.57
4981;BME280;2507;50.392;7.482;2023-02-13T06:04:02;102920.72;;;8.87;69.20
4981;BME280;2507;50.392;7.482;2023-02-13T06:06:28;102918.47;;;8.72;70.06
4981;BME280;2507;50.392;7.482;2023-02-13T06:08:53;102931.16;;;8.53;70.35
4981;BME280;2507;50.392;7.482;2023-02-13T06:11:19;102925.19;;;8.48;70.40
4981;BME280;2507;50.392;7.482;2023-02-13T06:13:44;102918.41;;;8.41;70.69
4981;BME280;2507;50.392;7.482;2023-02-13T06:16:10;102922.66;;;8.45;70.93
4981;BME280;2507;50.392;7.482;2023-02-13T06:18:36;102924.13;;;8.18;71.14
4981;BME280;2507;50.392;7.482;2023-02-13T06:21:02;102930.59;;;8.04;71.36
4981;BME280;2507;50.392;7.482;2023-02-13T06:23:28;102929.34;;;7.82;71.95
4981;BME280;2507;50.392;7.482;2023-02-13T06:25:53;102927.91;;;7.67;72.67
4981;BME280;2507;50.392;7.482;2023-02-13T06:28:18;102927.34;;;7.53;72.28
4981;BME280;2507;50.392;7.482;2023-02-13T06:30:44;102935.53;;;7.37;73.45
4981;BME280;2507;50.392;7.482;2023-02-13T06:33:09;102929.41;;;7.39;73.84
4981;BME280;2507;50.392;7.482;2023-02-13T06:35:34;102931.28;;;7.31;73.77
4981;BME280;2507;50.392;7.482;2023-02-13T06:38:00;102932.22;;;7.29;72.88
4981;BME280;2507;50.392;7.482;2023-02-13T06:40:25;102943.53;;;7.28;73.90
4981;BME280;2507;50.392;7.482;2023-02-13T06:42:50;102940.91;;;7.31;73.29
4981;BME280;2507;50.392;7.482;2023-02-13T06:45:15;102945.50;;;7.18;73.87
4981;BME280;2507;50.392;7.482;2023-02-13T06:47:45;102936.53;;;6.85;74.74
4981;BME280;2507;50.392;7.482;2023-02-13T06:50:12;102952.59;;;6.61;76.76
4981;BME280;2507;50.392;7.482;2023-02-13T06:52:38;102955.41;;;6.51;77.83
4981;BME280;2507;50.392;7.482;2023-02-13T06:55:04;102955.28;;;6.57;77.91
4981;BME280;2507;50.392;7.482;2023-02-13T06:57:30;102951.63;;;6.67;77.32
4981;BME280;2507;50.392;7.482;2023-02-13T06:59:59;102949.78;;;6.73;77.06
4981;BME280;2507;50.392;7.482;2023-02-13T07:02:24;102954.13;;;6.73;76.58
4981;BME280;2507;50.392;7.482;2023-02-13T07:04:49;102954.97;;;6.76;77.20
4981;BME280;2507;50.392;7.482;2023-02-13T07:07:14;102951.06;;;6.98;77.80
4981;BME280;2507;50.392;7.482;2023-02-13T07:09:40;102952.00;;;7.40;78.60
4981;BME280;2507;50.392;7.482;2023-02-13T07:12:05;102954.88;;;7.71;76.55
4981;BME280;2507;50.392;7.482;2023-02-13T07:14:31;102953.22;;;8.05;74.44
4981;BME280;2507;50.392;7.482;2023-02-13T07:16:56;102954.13;;;8.42;72.41
4981;BME280;2507;50.392;7.482;2023-02-13T07:19:22;102951.59;;;8.74;70.80
4981;BME280;2507;50.392;7.482;2023-02-13T07:21:47;102953.38;;;9.04;69.18
4981;BME280;2507;50.392;7.482;2023-02-13T07:24:12;102943.91;;;9.33;68.65
4981;BME280;2507;50.392;7.482;2023-02-13T07:26:38;102952.47;;;9.68;68.25
4981;BME280;2507;50.392;7.482;2023-02-13T07:29:03;102950.53;;;10.02;66.08
4981;BME280;2507;50.392;7.482;2023-02-13T07:31:32;102951.16;;;10.12;64.50
4981;BME280;2507;50.392;7.482;2023-02-13T07:33:57;102953.47;;;10.21;63.45
4981;BME280;2507;50.392;7.482;2023-02-13T07:36:22;102952.66;;;10.19;63.17
4981;BME280;2507;50.392;7.482;2023-02-13T07:38:48;102955.94;;;10.27;63.50
4981;BME280;2507;50.392;7.482;2023-02-13T07:41:13;102948.25;;;9.92;62.70
4981;BME280;2507;50.392;7.482;2023-02-13T07:43:38;102951.03;;;9.57;63.68
4981;BME280;2507;50.392;7.482;2023-02-13T07:46:04;102955.75;;;9.13;65.15
4981;BME280;2507;50.392;7.482;2023-02-13T07:48:30;102946.94;;;9.17;65.84
4981;BME280;2507;50.392;7.482;2023-02-13T07:50:59;102944.16;;;9.22;65.22
4981;BME280;2507;50.392;7.482;2023-02-13T07:53:25;102951.91;;;9.26;65.26
4981;BME280;2507;50.392;7.482;2023-02-13T07:55:50;102943.59;;;9.11;65.33
4981;BME280;2507;50.392;7.482;2023-02-13T07:58:16;102950.47;;;9.15;65.62
4981;BME280;2507;50.392;7.482;2023-02-13T08:00:41;102944.31;;;9.17;65.80
4981;BME280;2507;50.392;7.482;2023-02-13T08:03:06;102940.00;;;9.47;65.68
4981;BME280;2507;50.392;7.482;2023-02-13T08:05:32;102941.03;;;9.71;64.93
4981;BME280;2507;50.392;7.482;2023-02-13T08:07:58;102941.47;;;9.85;64.06
4981;BME280;2507;50.392;7.482;2023-02-13T08:10:23;102946.78;;;9.82;63.91
4981;BME280;2507;50.392;7.482;2023-02-13T08:13:08;102943.41;;;9.78;64.27
4981;BME280;2507;50.392;7.482;2023-02-13T08:15:34;102948.78;;;9.74;64.39
4981;BME280;2507;50.392;7.482;2023-02-13T08:18:00;102953.44;;;9.64;64.66
4981;BME280;2507;50.392;7.482;2023-02-13T08:20:25;102947.53;;;9.27;66.09
4981;BME280;2507;50.392;7.482;2023-02-13T08:22:50;102948.03;;;9.09;67.50
4981;BME280;2507;50.392;7.482;2023-02-13T08:25:16;102949.22;;;8.97;68.44
4981;BME280;2507;50.392;7.482;2023-02-13T08:27:43;102954.69;;;8.88;69.10
4981;BME280;2507;50.392;7.482;2023-02-13T08:30:09;102949.16;;;8.67;70.32
4981;BME280;2507;50.392;7.482;2023-02-13T08:32:34;102950.72;;;8.74;70.26
4981;BME280;2507;50.392;7.482;2023-02-13T08:35:00;102953.53;;;8.66;71.18
4981;BME280;2507;50.392;7.482;2023-02-13T08:37:25;102947.22;;;8.73;71.30
4981;BME280;2507;50.392;7.482;2023-02-13T08:39:50;102955.59;;;8.87;71.62
4981;BME280;2507;50.392;7.482;2023-02-13T08:42:15;102952.19;;;8.85;71.15
4981;BME280;2507;50.392;7.482;2023-02-13T08:44:41;102955.22;;;9.01;70.99
4981;BME280;2507;50.392;7.482;2023-02-13T08:47:07;102957.56;;;9.11;70.52
4981;BME280;2507;50.392;7.482;2023-02-13T08:49:33;102958.78;;;9.31;70.55
4981;BME280;2507;50.392;7.482;2023-02-13T08:51:59;102959.72;;;9.59;70.10
4981;BME280;2507;50.392;7.482;2023-02-13T08:54:25;102969.06;;;9.98;68.54
4981;BME280;2507;50.392;7.482;2023-02-13T08:56:52;102968.53;;;10.16;66.97
4981;BME280;2507;50.392;7.482;2023-02-13T08:59:17;102972.63;;;10.24;66.61
4981;BME280;2507;50.392;7.482;2023-02-13T09:01:42;102970.56;;;10.34;67.00
4981;BME280;2507;50.392;7.482;2023-02-13T09:04:07;102959.16;;;10.61;65.19
4981;BME280;2507;50.392;7.482;2023-02-13T09:06:33;102954.31;;;10.75;63.60
4981;BME280;2507;50.392;7.482;2023-02-13T09:08:58;102962.84;;;10.56;64.15
4981;BME280;2507;50.392;7.482;2023-02-13T09:11:23;102956.53;;;10.61;64.09
4981;BME280;2507;50.392;7.482;2023-02-13T09:13:52;102960.50;;;10.74;63.11
4981;BME280;2507;50.392;7.482;2023-02-13T09:16:17;102961.13;;;10.81;63.03
4981;BME280;2507;50.392;7.482;2023-02-13T09:18:46;102961.75;;;10.89;62.41
4981;BME280;2507;50.392;7.482;2023-02-13T09:21:12;102961.75;;;10.87;62.48
4981;BME280;2507;50.392;7.482;2023-02-13T09:23:39;102974.06;;;10.87;62.75
4981;BME280;2507;50.392;7.482;2023-02-13T09:26:07;102970.88;;;10.77;62.86
4981;BME280;2507;50.392;7.482;2023-02-13T09:28:35;102964.00;;;10.73;63.24
4981;BME280;2507;50.392;7.482;2023-02-13T09:31:09;102971.25;;;10.91;62.43
4981;BME280;2507;50.392;7.482;2023-02-13T09:33:35;102967.38;;;11.03;61.58
4981;BME280;2507;50.392;7.482;2023-02-13T09:36:09;102967.63;;;10.95;61.72
4981;BME280;2507;50.392;7.482;2023-02-13T09:38:34;102969.38;;;10.95;61.78
4981;BME280;2507;50.392;7.482;2023-02-13T09:41:07;102962.56;;;10.89;61.52
4981;BME280;2507;50.392;7.482;2023-02-13T09:43:40;102963.88;;;11.02;61.99
4981;BME280;2507;50.392;7.482;2023-02-13T09:46:13;102956.16;;;11.22;61.15
4981;BME280;2507;50.392;7.482;2023-02-13T09:48:42;102960.00;;;11.37;60.81
4981;BME280;2507;50.392;7.482;2023-02-13T09:51:14;102960.75;;;11.41;60.83
4981;BME280;2507;50.392;7.482;2023-02-13T09:53:40;102959.19;;;11.58;60.30
4981;BME280;2507;50.392;7.482;2023-02-13T09:56:16;102966.66;;;11.47;60.22
4981;BME280;2507;50.392;7.482;2023-02-13T09:58:48;102965.94;;;11.42;60.46
4981;BME280;2507;50.392;7.482;2023-02-13T10:01:27;102976.53;;;11.64;60.11
4981;BME280;2507;50.392;7.482;2023-02-13T10:04:11;102972.22;;;11.86;59.25
4981;BME280;2507;50.392;7.482;2023-02-13T10:06:46;102967.66;;;11.91;59.32
4981;BME280;2507;50.392;7.482;2023-02-13T10:09:32;102968.13;;;12.00;58.13
4981;BME280;2507;50.392;7.482;2023-02-13T10:12:29;102966.50;;;11.75;59.75
4981;BME280;2507;50.392;7.482;2023-02-13T10:17:38;102970.13;;;11.72;59.84
4981;BME280;2507;50.392;7.482;2023-02-13T10:23:40;102971.03;;;11.94;58.73
4981;BME280;2507;50.392;7.482;2023-02-13T10:26:39;102961.97;;;11.78;59.85
4981;BME280;2507;50.392;7.482;2023-02-13T10:32:17;102956.34;;;12.10;58.56
4981;BME280;2507;50.392;7.482;2023-02-13T10:34:44;102959.81;;;12.11;58.45
4981;BME280;2507;50.392;7.482;2023-02-13T10:37:14;102957.38;;;12.28;58.09
4981;BME280;2507;50.392;7.482;2023-02-13T10:39:44;102955.34;;;12.34;58.03
4981;BME280;2507;50.392;7.482;2023-02-13T10:42:40;102940.50;;;12.12;58.43
4981;BME280;2507;50.392;7.482;2023-02-13T10:45:41;102948.22;;;12.38;58.02
4981;BME280;2507;50.392;7.482;2023-02-13T10:48:30;102944.75;;;12.58;57.51
4981;BME280;2507;50.392;7.482;2023-02-13T10:51:18;102944.56;;;12.82;56.72
4981;BME280;2507;50.392;7.482;2023-02-13T10:57:12;102943.31;;;12.51;58.42
4981;BME280;2507;50.392;7.482;2023-02-13T10:59:50;102944.47;;;12.85;56.94
4981;BME280;2507;50.392;7.482;2023-02-13T11:02:24;102931.31;;;12.64;57.53
4981;BME280;2507;50.392;7.482;2023-02-13T11:04:59;102937.72;;;12.78;57.64
4981;BME280;2507;50.392;7.482;2023-02-13T11:07:25;102936.19;;;12.93;56.22
4981;BME280;2507;50.392;7.482;2023-02-13T11:09:54;102928.97;;;12.98;56.26
4981;BME280;2507;50.392;7.482;2023-02-13T11:12:30;102929.03;;;13.16;55.87
4981;BME280;2507;50.392;7.482;2023-02-13T11:15:01;102918.63;;;13.13;55.44
4981;BME280;2507;50.392;7.482;2023-02-13T11:17:30;102925.47;;;12.97;55.87
4981;BME280;2507;50.392;7.482;2023-02-13T11:19:58;102910.97;;;12.47;58.27
4981;BME280;2507;50.392;7.482;2023-02-13T11:22:35;102916.53;;;12.81;56.55
4981;BME280;2507;50.392;7.482;2023-02-13T11:25:21;102912.84;;;13.05;56.19
4981;BME280;2507;50.392;7.482;2023-02-13T11:27:49;102903.28;;;12.63;57.41
4981;BME280;2507;50.392;7.482;2023-02-13T11:30:35;102906.81;;;12.42;58.14
4981;BME280;2507;50.392;7.482;2023-02-13T11:33:04;102900.81;;;12.98;56.34
4981;BME280;2507;50.392;7.482;2023-02-13T11:35:32;102905.66;;;13.29;55.20
4981;BME280;2507;50.392;7.482;2023-02-13T11:40:41;102897.28;;;12.79;57.67
4981;BME280;2507;50.392;7.482;2023-02-13T11:43:17;102888.59;;;13.17;55.69
4981;BME280;2507;50.392;7.482;2023-02-13T11:45:43;102888.03;;;13.29;55.44
4981;BME280;2507;50.392;7.482;2023-02-13T11:48:19;102884.13;;;13.38;55.86
4981;BME280;2507;50.392;7.482;2023-02-13T11:50:50;102883.41;;;13.53;54.82
4981;BME280;2507;50.392;7.482;2023-02-13T11:53:21;102876.53;;;13.12;56.06
4981;BME280;2507;50.392;7.482;2023-02-13T11:56:11;102869.59;;;13.09;55.85
4981;BME280;2507;50.392;7.482;2023-02-13T11:58:38;102875.63;;;13.50;54.54
4981;BME280;2507;50.392;7.482;2023-02-13T12:03:56;102869.06;;;13.77;54.00
4981;BME280;2507;50.392;7.482;2023-02-13T12:06:21;102855.44;;;13.68;54.03
4981;BME280;2507;50.392;7.482;2023-02-13T12:08:48;102854.28;;;13.92;53.56
4981;BME280;2507;50.392;7.482;2023-02-13T12:11:30;102851.13;;;14.19;52.75
4981;BME280;2507;50.392;7.482;2023-02-13T12:13:58;102840.69;;;14.16;52.96
4981;BME280;2507;50.392;7.482;2023-02-13T12:16:30;102847.47;;;14.22;52.35
4981;BME280;2507;50.392;7.482;2023-02-13T12:18:59;102835.13;;;14.22;51.90
4981;BME280;2507;50.392;7.482;2023-02-13T12:21:53;102838.06;;;13.99;52.81
4981;BME280;2507;50.392;7.482;2023-02-13T12:30:02;102833.38;;;13.87;54.75
4981;BME280;2507;50.392;7.482;2023-02-13T12:33:00;102823.44;;;14.28;52.49
4981;BME280;2507;50.392;7.482;2023-02-13T12:35:37;102819.88;;;14.29;52.76
4981;BME280;2507;50.392;7.482;2023-02-13T12:47:09;102803.53;;;14.88;50.74
4981;BME280;2507;50.392;7.482;2023-02-13T12:55:57;102794.25;;;14.96;50.75
4981;BME280;2507;50.392;7.482;2023-02-13T13:09:58;102776.88;;;14.92;51.08
4981;BME280;2507;50.392;7.482;2023-02-13T13:12:38;102765.44;;;14.59;53.32
4981;BME280;2507;50.392;7.482;2023-02-13T13:15:39;102774.78;;;14.49;52.50
4981;BME280;2507;50.392;7.482;2023-02-13T13:21:12;102770.84;;;14.73;52.58
4981;BME280;2507;50.392;7.482;2023-02-13T13:26:34;102752.56;;;15.01;51.05
4981;BME280;2507;50.392;7.482;2023-02-13T13:29:05;102754.28;;;15.33;50.47
4981;BME280;2507;50.392;7.482;2023-02-13T13:31:34;102744.28;;;15.70;49.41
4981;BME280;2507;50.392;7.482;2023-02-13T13:34:01;102746.44;;;15.48;49.78
4981;BME280;2507;50.392;7.482;2023-02-13T13:36:39;102746.81;;;15.71;49.48
4981;BME280;2507;50.392;7.482;2023-02-13T13:39:50;102745.31;;;15.20;51.32
4981;BME280;2507;50.392;7.482;2023-02-13T13:50:30;102729.38;;;16.12;48.48
4981;BME280;2507;50.392;7.482;2023-02-13T13:53:14;102726.06;;;16.09;48.85
4981;BME280;2507;50.392;7.482;2023-02-13T13:58:23;102724.28;;;15.64;49.88
4981;BME280;2507;50.392;7.482;2023-02-13T14:03:39;102724.66;;;15.88;48.52
4981;BME280;2507;50.392;7.482;2023-02-13T14:06:11;102719.22;;;15.75;49.09
4981;BME280;2507;50.392;7.482;2023-02-13T14:08:53;102724.34;;;15.78;48.81
4981;BME280;2507;50.392;7.482;2023-02-13T14:11:42;102719.00;;;15.94;48.78
4981;BME280;2507;50.392;7.482;2023-02-13T14:16:54;102717.44;;;15.76;49.18
4981;BME280;2507;50.392;7.482;2023-02-13T14:19:28;102712.59;;;15.98;48.72
4981;BME280;2507;50.392;7.482;2023-02-13T14:24:49;102709.50;;;16.05;48.40
4981;BME280;2507;50.392;7.482;2023-02-13T14:27:43;102708.13;;;15.98;48.61
4981;BME280;2507;50.392;7.482;2023-02-13T14:30:33;102708.84;;;16.16;48.13
4981;BME280;2507;50.392;7.482;2023-02-13T14:33:03;102698.53;;;16.25;47.71
4981;BME280;2507;50.392;7.482;2023-02-13T14:35:31;102709.13;;;16.25;47.93
4981;BME280;2507;50.392;7.482;2023-02-13T14:38:02;102697.31;;;16.45;47.43
4981;BME280;2507;50.392;7.482;2023-02-13T14:43:29;102690.16;;;16.47;47.66
4981;BME280;2507;50.392;7.482;2023-02-13T14:48:57;102694.47;;;16.34;46.04
4981;BME280;2507;50.392;7.482;2023-02-13T14:51:40;102687.75;;;16.43;45.58
4981;BME280;2507;50.392;7.482;2023-02-13T14:56:51;102691.06;;;16.46;44.73
4981;BME280;2507;50.392;7.482;2023-02-13T14:59:25;102686.03;;;16.27;44.81
4981;BME280;2507;50.392;7.482;2023-02-13T15:01:58;102683.19;;;16.16;45.38
4981;BME280;2507;50.392;7.482;2023-02-13T15:04:37;102684.50;;;16.09;45.59
4981;BME280;2507;50.392;7.482;2023-02-13T15:07:06;102688.69;;;16.27;45.97
4981;BME280;2507;50.392;7.482;2023-02-13T15:09:39;102684.34;;;16.41;45.54
4981;BME280;2507;50.392;7.482;2023-02-13T15:12:25;102678.94;;;16.28;45.69
4981;BME280;2507;50.392;7.482;2023-02-13T15:14:50;102680.28;;;16.21;46.02
4981;BME280;2507;50.392;7.482;2023-02-13T15:17:22;102671.75;;;16.16;44.84
4981;BME280;2507;50.392;7.482;2023-02-13T15:19:50;102681.16;;;15.92;45.34
4981;BME280;2507;50.392;7.482;2023-02-13T15:22:44;102674.09;;;15.92;45.19
4981;BME280;2507;50.392;7.482;2023-02-13T15:25:33;102675.66;;;15.81;45.25
4981;BME280;2507;50.392;7.482;2023-02-13T15:28:01;102676.19;;;15.72;45.83
4981;BME280;2507;50.392;7.482;2023-02-13T15:30:29;102679.66;;;15.88;45.59
4981;BME280;2507;50.392;7.482;2023-02-13T15:33:21;102680.00;;;15.82;45.73
4981;BME280;2507;50.392;7.482;2023-02-13T15:35:54;102682.25;;;15.74;46.33
4981;BME280;2507;50.392;7.482;2023-02-13T15:38:31;102684.78;;;15.61;46.12
4981;BME280;2507;50.392;7.482;2023-02-13T15:41:03;102677.38;;;15.52;46.22
4981;BME280;2507;50.392;7.482;2023-02-13T15:43:33;102671.00;;;15.41;46.56
4981;BME280;2507;50.392;7.482;2023-02-13T15:46:02;102682.59;;;15.38;46.45